createdAt,value
2022-09-28T00:00:30.587Z,1
2022-09-28T00:02:30.431Z,1
2022-09-28T00:04:37.046Z,1
2022-09-28T00:06:30.531Z,1
2022-09-28T00:08:32.215Z,1
2022-09-28T00:10:30.246Z,1
2022-09-28T00:12:35.082Z,1
2022-09-28T00:14:30.392Z,1
2022-09-28T00:16:30.057Z,1
2022-09-28T00:18:30.339Z,1
2022-09-28T00:20:30.359Z,1
2022-09-28T00:22:33.897Z,1
2022-09-28T00:24:30.308Z,1
2022-09-28T00:26:31.566Z,1
2022-09-28T00:28:36.917Z,1
2022-09-28T00:32:30.181Z,1
2022-09-28T00:34:34.373Z,1
2022-09-28T00:36:30.306Z,1
2022-09-28T00:38:30.818Z,1
2022-09-28T00:40:29.821Z,1
2022-09-28T00:42:36.802Z,1
2022-09-28T00:44:30.734Z,1
2022-09-28T00:46:37.042Z,1
2022-09-28T00:48:30.252Z,1
2022-09-28T00:50:33.668Z,1
2022-09-28T00:52:30.081Z,1
2022-09-28T00:54:33.887Z,1
2022-09-28T00:56:36.943Z,1
2022-09-28T00:58:30.761Z,1
2022-09-28T01:00:37.148Z,1
2022-09-28T01:02:32.994Z,1
2022-09-28T01:04:33.844Z,1
2022-09-28T01:06:30.300Z,1
2022-09-28T01:08:30.423Z,1
2022-09-28T01:10:33.686Z,1
2022-09-28T01:12:33.908Z,1
2022-09-28T01:14:30.597Z,1
2022-09-28T01:16:30.350Z,1
2022-09-28T01:18:30.614Z,1
2022-09-28T01:20:37.064Z,1
2022-09-28T01:22:30.264Z,1
2022-09-28T01:24:35.049Z,1
2022-09-28T01:26:30.738Z,1
2022-09-28T01:28:33.834Z,1
2022-09-28T01:30:37.083Z,1
2022-09-28T01:32:33.507Z,1
2022-09-28T01:36:30.360Z,1
2022-09-28T01:38:33.755Z,1
2022-09-28T01:40:33.934Z,1
2022-09-28T01:42:30.440Z,1
2022-09-28T01:44:30.223Z,1
2022-09-28T01:46:32.856Z,1
2022-09-28T01:48:29.917Z,1
2022-09-28T01:50:37.857Z,1
2022-09-28T01:52:30.119Z,1
2022-09-28T01:54:31.999Z,1
2022-09-28T01:56:30.252Z,1
2022-09-28T01:58:33.625Z,1
2022-09-28T02:00:30.352Z,1
2022-09-28T02:02:37.420Z,1
2022-09-28T02:04:30.503Z,1
2022-09-28T02:06:37.014Z,1
2022-09-28T02:08:33.969Z,1
2022-09-28T02:10:30.139Z,1
2022-09-28T02:12:33.589Z,1
2022-09-28T02:14:30.267Z,1
2022-09-28T02:16:30.362Z,1
2022-09-28T02:18:30.517Z,1
2022-09-28T02:20:30.740Z,1
2022-09-28T02:22:30.146Z,1
2022-09-28T02:24:30.506Z,1
2022-09-28T02:26:37.021Z,1
2022-09-28T02:28:29.265Z,1
2022-09-28T02:30:33.854Z,1
2022-09-28T02:32:30.444Z,1
2022-09-28T02:34:29.843Z,1
2022-09-28T02:36:30.348Z,1
2022-09-28T02:38:38.252Z,1
2022-09-28T02:40:30.597Z,1
2022-09-28T02:42:30.341Z,1
2022-09-28T02:44:30.325Z,1
2022-09-28T02:46:30.378Z,1
2022-09-28T02:48:42.948Z,1
2022-09-28T02:52:30.252Z,1
2022-09-28T02:54:34.074Z,1
2022-09-28T02:56:30.242Z,1
2022-09-28T02:58:30.297Z,1
2022-09-28T03:00:30.353Z,1
2022-09-28T03:02:34.997Z,1
2022-09-28T03:04:30.703Z,1
2022-09-28T03:08:33.793Z,1
2022-09-28T03:10:30.300Z,1
2022-09-28T03:12:30.297Z,1
2022-09-28T03:14:30.523Z,1
2022-09-28T03:16:34.113Z,1
2022-09-28T03:18:30.740Z,1
2022-09-28T03:20:30.209Z,1
2022-09-28T03:22:30.607Z,1
2022-09-28T03:24:30.402Z,1
2022-09-28T03:26:34.052Z,1
2022-09-28T03:28:30.514Z,1
2022-09-28T03:30:33.099Z,1
2022-09-28T03:32:30.644Z,1
2022-09-28T03:34:32.176Z,1
2022-09-28T03:36:30.483Z,1
2022-09-28T03:38:30.321Z,1
2022-09-28T03:40:30.518Z,1
2022-09-28T03:42:31.731Z,1
2022-09-28T03:44:30.422Z,1
2022-09-28T03:46:30.334Z,1
2022-09-28T03:48:32.521Z,1
2022-09-28T03:50:34.436Z,1
2022-09-28T03:52:33.644Z,1
2022-09-28T03:54:36.992Z,1
2022-09-28T03:56:30.369Z,1
2022-09-28T03:58:33.855Z,1
2022-09-28T04:00:36.907Z,1
2022-09-28T04:02:30.472Z,1
2022-09-28T04:04:30.237Z,1
2022-09-28T04:06:32.018Z,1
2022-09-28T04:08:30.397Z,1
2022-09-28T04:10:34.167Z,1
2022-09-28T04:12:30.499Z,1
2022-09-28T04:14:30.314Z,1
2022-09-28T04:16:30.302Z,1
2022-09-28T04:18:33.924Z,1
2022-09-28T04:20:37.053Z,1
2022-09-28T04:22:30.715Z,1
2022-09-28T04:24:30.449Z,0
2022-09-28T04:28:33.904Z,0
2022-09-28T04:30:30.360Z,0.1
2022-09-28T04:32:34.760Z,0.1
2022-09-28T04:34:34.608Z,0.1
2022-09-28T04:36:30.795Z,0.2
2022-09-28T04:38:51.562Z,0.3
2022-09-28T04:40:34.027Z,0.4
2022-09-28T04:42:30.398Z,0.5
2022-09-28T04:44:30.407Z,0.7
2022-09-28T04:46:30.424Z,1
2022-09-28T04:48:34.888Z,1.4
2022-09-28T04:50:33.767Z,2
2022-09-28T04:52:30.638Z,2.7
2022-09-28T04:54:30.564Z,3.5
2022-09-28T04:56:33.739Z,5
2022-09-28T04:58:30.485Z,6.4
2022-09-28T05:00:30.277Z,7.8
2022-09-28T05:02:33.490Z,9.5
2022-09-28T05:04:30.493Z,12.8
2022-09-28T05:06:30.706Z,16.4
2022-09-28T05:08:30.861Z,20.1
2022-09-28T05:10:31.615Z,23.3
2022-09-28T05:12:33.889Z,25.8
2022-09-28T05:14:30.393Z,28.5
2022-09-28T05:16:30.114Z,36.6
2022-09-28T05:18:33.712Z,49.4
2022-09-28T05:20:30.378Z,63.4
2022-09-28T05:22:33.938Z,73.7
2022-09-28T05:24:30.791Z,81.5
2022-09-28T05:26:33.450Z,81.5
2022-09-28T05:28:30.362Z,81.5
2022-09-28T05:30:30.567Z,90
2022-09-28T05:32:33.920Z,85.6
2022-09-28T05:34:37.168Z,77.5
2022-09-28T05:36:30.825Z,81.5
2022-09-28T05:38:39.031Z,90
2022-09-28T05:40:30.380Z,90
2022-09-28T05:42:33.986Z,99.5
2022-09-28T05:44:30.403Z,109.9
2022-09-28T05:46:33.668Z,104.6
2022-09-28T05:48:30.516Z,115.6
2022-09-28T05:50:33.973Z,104.6
2022-09-28T05:52:33.694Z,104.6
2022-09-28T05:54:33.947Z,115.6
2022-09-28T05:56:30.427Z,134.3
2022-09-28T05:58:30.569Z,141.2
2022-09-28T06:00:30.660Z,172.4
2022-09-28T06:02:30.407Z,181.3
2022-09-28T06:04:35.226Z,181.3
2022-09-28T06:06:34.000Z,244.7
2022-09-28T06:08:30.447Z,284.3
2022-09-28T06:10:32.200Z,210.6
2022-09-28T06:12:30.464Z,221.4
2022-09-28T06:14:30.516Z,257.2
2022-09-28T06:16:30.944Z,284.3
2022-09-28T06:18:35.287Z,365
2022-09-28T06:20:31.083Z,383.8
2022-09-28T06:22:30.635Z,445.9
2022-09-28T06:24:33.974Z,383.8
2022-09-28T06:26:33.688Z,445.9
2022-09-28T06:28:30.356Z,424.1
2022-09-28T06:30:33.994Z,383.8
2022-09-28T06:32:30.488Z,365
2022-09-28T06:34:31.056Z,365
2022-09-28T06:36:30.534Z,314.2
2022-09-28T06:38:30.274Z,365
2022-09-28T06:40:30.398Z,365
2022-09-28T06:42:30.437Z,445.9
2022-09-28T06:44:33.889Z,601.8
2022-09-28T06:46:30.917Z,572.5
2022-09-28T06:48:30.445Z,572.5
2022-09-28T06:50:30.352Z,772.8
2022-09-28T06:52:34.094Z,544.6
2022-09-28T06:54:33.943Z,365
2022-09-28T06:56:32.824Z,298.9
2022-09-28T06:58:33.709Z,284.3
2022-09-28T07:02:30.704Z,365
2022-09-28T07:04:30.249Z,468.7
2022-09-28T07:06:30.067Z,665.1
2022-09-28T07:08:32.110Z,699.2
2022-09-28T07:10:30.369Z,632.7
2022-09-28T07:12:30.481Z,445.9
2022-09-28T07:14:43.844Z,518
2022-09-28T07:17:02.385Z,601.8
2022-09-28T07:18:33.906Z,699.2
2022-09-28T07:22:39.995Z,772.8
2022-09-28T07:24:30.472Z,772.8
2022-09-28T07:28:33.949Z,812.4
2022-09-28T07:30:30.330Z,854.1
2022-09-28T07:32:32.134Z,897.8
2022-09-28T07:34:30.392Z,854.1
2022-09-28T07:38:30.605Z,897.8
2022-09-28T07:40:34.850Z,943.9
2022-09-28T07:42:34.142Z,992.3
2022-09-28T07:44:30.499Z,992.3
2022-09-28T07:46:30.060Z,1096.6
2022-09-28T07:48:30.550Z,1096.6
2022-09-28T07:50:37.117Z,1096.6
2022-09-28T07:52:30.437Z,1043.1
2022-09-28T07:54:34.024Z,1152.9
2022-09-28T07:56:30.039Z,1212
2022-09-28T07:58:33.821Z,1212
2022-09-28T08:00:37.108Z,1152.9
2022-09-28T08:02:31.126Z,1043.1
2022-09-28T08:04:30.794Z,1043.1
2022-09-28T08:06:37.134Z,1096.6
2022-09-28T08:08:30.506Z,1152.9
2022-09-28T08:10:36.779Z,1152.9
2022-09-28T08:12:30.469Z,943.9
2022-09-28T08:14:30.257Z,897.8
2022-09-28T08:16:30.769Z,1212
2022-09-28T08:18:33.825Z,1339.4
2022-09-28T08:20:33.704Z,1339.4
2022-09-28T08:24:37.128Z,1408.1
2022-09-28T08:26:30.471Z,1556.2
2022-09-28T08:28:30.539Z,1636
2022-09-28T08:30:30.539Z,1719.9
2022-09-28T08:34:30.856Z,2100.6
2022-09-28T08:36:20.311Z,2440.6
2022-09-28T08:38:20.690Z,2835.6
2022-09-28T08:40:20.148Z,2835.6
2022-09-28T08:42:24.242Z,3294.5
2022-09-28T08:44:20.587Z,3827.6
2022-09-28T08:46:22.626Z,4447.1
2022-09-28T08:48:20.229Z,4675.1
2022-09-28T08:50:24.129Z,4447.1
2022-09-28T08:52:20.704Z,4023.9
2022-09-28T08:54:20.132Z,3827.6
2022-09-28T08:56:20.607Z,3827.6
2022-09-28T08:58:20.098Z,3463.4
2022-09-28T09:00:20.959Z,3294.5
2022-09-28T09:02:20.708Z,3294.5
2022-09-28T09:04:20.864Z,3463.4
2022-09-28T09:06:23.749Z,3463.4
2022-09-28T09:08:20.635Z,4023.9
2022-09-28T09:10:25.525Z,4675.1
2022-09-28T09:12:20.895Z,4230.2
2022-09-28T09:14:24.429Z,4447.1
2022-09-28T09:16:24.135Z,4675.1
2022-09-28T09:18:20.475Z,4675.1
2022-09-28T09:20:24.148Z,4675.1
2022-09-28T09:22:23.878Z,5431.7
2022-09-28T09:24:21.101Z,5431.7
2022-09-28T09:26:23.435Z,4230.2
2022-09-28T09:28:21.057Z,3463.4
2022-09-28T09:30:22.105Z,3641
2022-09-28T09:32:24.133Z,4230.2
2022-09-28T09:34:20.211Z,4675.1
2022-09-28T09:36:24.089Z,4914.8
2022-09-28T09:38:20.111Z,5166.8
2022-09-28T09:40:24.191Z,5166.8
2022-09-28T09:42:20.670Z,4675.1
2022-09-28T09:46:20.165Z,3641
2022-09-28T09:48:22.111Z,3827.6
2022-09-28T09:50:20.929Z,3641
2022-09-28T09:52:28.373Z,2835.6
2022-09-28T09:54:20.654Z,2565.7
2022-09-28T09:56:20.795Z,2697.3
2022-09-28T09:58:23.853Z,2697.3
2022-09-28T10:00:24.102Z,2697.3
2022-09-28T10:02:24.225Z,2697.3
2022-09-28T10:04:20.760Z,2697.3
2022-09-28T10:06:21.116Z,2697.3
2022-09-28T10:08:24.895Z,2565.7
2022-09-28T10:10:21.103Z,2835.6
2022-09-28T10:12:20.888Z,2981
2022-09-28T10:14:20.824Z,2981
2022-09-28T10:16:28.040Z,2981
2022-09-28T10:18:27.212Z,2565.7
2022-09-28T10:20:27.270Z,2697.3
2022-09-28T10:22:20.565Z,2835.6
2022-09-28T10:24:25.390Z,2565.7
2022-09-28T10:26:24.725Z,2321.6
2022-09-28T10:28:20.653Z,2100.6
2022-09-28T10:30:24.007Z,1998.2
2022-09-28T10:32:24.161Z,2321.6
2022-09-28T10:34:20.800Z,2321.6
2022-09-28T10:36:20.617Z,2321.6
2022-09-28T10:38:20.688Z,2440.6
2022-09-28T10:40:23.986Z,2440.6
2022-09-28T10:42:20.746Z,2321.6
2022-09-28T10:44:21.075Z,2835.6
2022-09-28T10:46:24.263Z,3294.5
2022-09-28T10:48:20.074Z,3294.5
2022-09-28T10:50:27.341Z,2981
2022-09-28T10:52:24.273Z,2835.6
2022-09-28T10:54:27.228Z,2835.6
2022-09-28T10:56:20.337Z,3294.5
2022-09-28T10:58:24.153Z,3641
2022-09-28T11:00:27.203Z,4230.2
2022-09-28T11:02:27.372Z,4023.9
2022-09-28T11:04:20.963Z,3463.4
2022-09-28T11:06:27.269Z,3463.4
2022-09-28T11:08:20.693Z,3463.4
2022-09-28T11:10:24.039Z,3133.8
2022-09-28T11:12:24.084Z,2981
2022-09-28T11:14:20.320Z,3463.4
2022-09-28T11:16:23.881Z,3463.4
2022-09-28T11:18:20.098Z,2981
2022-09-28T11:20:26.180Z,2835.6
2022-09-28T11:22:20.707Z,2697.3
2022-09-28T11:24:26.461Z,2835.6
2022-09-28T11:26:27.167Z,2981
2022-09-28T11:28:20.617Z,2981
2022-09-28T11:30:24.202Z,3827.6
2022-09-28T11:32:24.212Z,3827.6
2022-09-28T11:34:27.695Z,3294.5
2022-09-28T11:36:20.543Z,3294.5
2022-09-28T11:38:26.303Z,2835.6
2022-09-28T11:40:21.081Z,2697.3
2022-09-28T11:42:26.559Z,3133.8
2022-09-28T11:44:20.771Z,3463.4
2022-09-28T11:46:28.116Z,3463.4
2022-09-28T11:48:20.585Z,3294.5
2022-09-28T11:50:29.958Z,2981
2022-09-28T11:52:20.744Z,2835.6
2022-09-28T11:54:20.892Z,3133.8
2022-09-28T11:58:20.986Z,3294.5
2022-09-28T12:00:20.817Z,3294.5
2022-09-28T12:02:21.146Z,3294.5
2022-09-28T12:04:20.853Z,3133.8
2022-09-28T12:06:20.839Z,3294.5
2022-09-28T12:08:24.167Z,3294.5
2022-09-28T12:10:20.805Z,3294.5
2022-09-28T12:12:27.226Z,3133.8
2022-09-28T12:14:20.704Z,3641
2022-09-28T12:16:53.363Z,4230.2
2022-09-28T12:18:21.359Z,4447.1
2022-09-28T12:20:27.307Z,4447.1
2022-09-28T12:22:20.089Z,4447.1
2022-09-28T12:24:24.256Z,4675.1
2022-09-28T12:26:20.692Z,4675.1
2022-09-28T12:28:20.594Z,4675.1
2022-09-28T12:32:20.774Z,3827.6
2022-09-28T12:34:26.947Z,3463.4
2022-09-28T12:36:20.657Z,3294.5
2022-09-28T12:38:24.139Z,3294.5
2022-09-28T12:40:24.236Z,3463.4
2022-09-28T12:42:21.050Z,3641
2022-09-28T12:44:19.301Z,3641
2022-09-28T12:46:22.247Z,3463.4
2022-09-28T12:48:20.246Z,3294.5
2022-09-28T12:50:40.790Z,3294.5
2022-09-28T12:52:24.074Z,3463.4
2022-09-28T12:54:20.865Z,3463.4
2022-09-28T12:56:20.977Z,3641
2022-09-28T13:00:24.058Z,4023.9
2022-09-28T13:02:24.196Z,4230.2
2022-09-28T13:04:21.158Z,4447.1
2022-09-28T13:06:20.258Z,4675.1
2022-09-28T13:08:26.744Z,4675.1
2022-09-28T13:10:27.295Z,3827.6
2022-09-28T13:12:20.702Z,3133.8
2022-09-28T13:14:20.969Z,2981
2022-09-28T13:16:24.582Z,3133.8
2022-09-28T13:18:20.497Z,3641
2022-09-28T13:20:20.834Z,3641
2022-09-28T13:22:20.839Z,3641
2022-09-28T13:26:22.319Z,3463.4
2022-09-28T13:28:22.934Z,3463.4
2022-09-28T13:32:21.001Z,3294.5
2022-09-28T13:34:20.282Z,3133.8
2022-09-28T13:36:21.093Z,3294.5
2022-09-28T13:38:23.862Z,3641
2022-09-28T13:40:27.432Z,3641
2022-09-28T13:42:20.745Z,3463.4
2022-09-28T13:44:24.029Z,2835.6
2022-09-28T13:46:20.833Z,2697.3
2022-09-28T13:48:22.201Z,2835.6
2022-09-28T13:50:27.319Z,2697.3
2022-09-28T13:52:20.792Z,2440.6
2022-09-28T13:54:21.102Z,2565.7
2022-09-28T13:56:24.126Z,2565.7
2022-09-28T13:58:24.125Z,2697.3
2022-09-28T14:00:20.895Z,2835.6
2022-09-28T14:02:28.250Z,2981
2022-09-28T14:04:24.126Z,2981
2022-09-28T14:06:21.087Z,2835.6
2022-09-28T14:08:20.957Z,2835.6
2022-09-28T14:10:25.523Z,2565.7
2022-09-28T14:12:20.973Z,2321.6
2022-09-28T14:14:20.671Z,1998.2
2022-09-28T14:16:20.809Z,1808
2022-09-28T14:18:24.236Z,1719.9
2022-09-28T14:20:20.775Z,1480.3
2022-09-28T14:22:22.232Z,1339.4
2022-09-28T14:24:20.573Z,1212
2022-09-28T14:26:20.237Z,1043.1
2022-09-28T14:28:20.737Z,943.9
2022-09-28T14:30:24.044Z,943.9
2022-09-28T14:32:20.669Z,943.9
2022-09-28T14:34:23.681Z,1043.1
2022-09-28T14:36:20.289Z,1096.6
2022-09-28T14:38:20.277Z,1043.1
2022-09-28T14:40:21.198Z,992.3
2022-09-28T14:42:22.653Z,1096.6
2022-09-28T14:44:24.546Z,1152.9
2022-09-28T14:46:20.742Z,1152.9
2022-09-28T14:48:23.610Z,992.3
2022-09-28T14:50:21.031Z,943.9
2022-09-28T14:52:20.906Z,1043.1
2022-09-28T14:56:20.881Z,1043.1
2022-09-28T14:58:20.947Z,943.9
2022-09-28T15:01:14.535Z,735.1
2022-09-28T15:03:11.489Z,632.7
2022-09-28T15:05:11.138Z,572.5
2022-09-28T15:07:07.841Z,544.6
2022-09-28T15:09:07.681Z,544.6
2022-09-28T15:11:11.221Z,518
2022-09-28T15:13:07.741Z,468.7
2022-09-28T15:15:08.085Z,468.7
2022-09-28T15:17:07.831Z,468.7
2022-09-28T15:19:15.577Z,492.7
2022-09-28T15:21:07.703Z,492.7
2022-09-28T15:23:19.978Z,468.7
2022-09-28T15:25:10.957Z,468.7
2022-09-28T15:27:11.261Z,468.7
2022-09-28T15:29:07.892Z,445.9
2022-09-28T15:31:09.202Z,544.6
2022-09-28T15:33:08.061Z,572.5
2022-09-28T15:35:07.913Z,601.8
2022-09-28T15:37:07.777Z,632.7
2022-09-28T15:39:11.046Z,572.5
2022-09-28T15:43:07.582Z,518
2022-09-28T15:45:08.493Z,544.6
2022-09-28T15:47:11.201Z,445.9
2022-09-28T15:49:08.087Z,347.2
2022-09-28T15:51:10.784Z,330.3
2022-09-28T15:53:07.479Z,383.8
2022-09-28T15:55:09.378Z,383.8
2022-09-28T15:57:14.480Z,365
2022-09-28T15:59:11.192Z,330.3
2022-09-28T16:01:11.292Z,347.2
2022-09-28T16:03:08.133Z,365
2022-09-28T16:05:07.746Z,365
2022-09-28T16:07:07.859Z,347.2
2022-09-28T16:09:07.842Z,314.2
2022-09-28T16:11:08.079Z,284.3
2022-09-28T16:13:19.090Z,270.4
2022-09-28T16:15:11.236Z,270.4
2022-09-28T16:17:07.837Z,270.4
2022-09-28T16:21:07.797Z,270.4
2022-09-28T16:23:07.262Z,298.9
2022-09-28T16:25:11.551Z,314.2
2022-09-28T16:27:07.863Z,314.2
2022-09-28T16:29:10.809Z,330.3
2022-09-28T16:33:08.062Z,298.9
2022-09-28T16:35:07.907Z,270.4
2022-09-28T16:37:12.323Z,232.8
2022-09-28T16:39:07.666Z,210.6
2022-09-28T16:43:07.861Z,164
2022-09-28T16:45:08.315Z,148.4
2022-09-28T16:47:07.989Z,127.7
2022-09-28T16:49:13.113Z,115.6
2022-09-28T16:51:11.406Z,99.5
2022-09-28T16:53:07.861Z,85.6
2022-09-28T16:55:22.889Z,70.1
2022-09-28T16:57:07.790Z,57.4
2022-09-28T16:59:14.912Z,47
2022-09-28T17:01:08.129Z,42.5
2022-09-28T17:03:08.135Z,36.6
2022-09-28T17:05:08.273Z,31.5
2022-09-28T17:07:07.363Z,25.8
2022-09-28T17:09:07.962Z,21.1
2022-09-28T17:11:17.882Z,15.6
2022-09-28T17:13:14.624Z,11.6
2022-09-28T17:15:07.885Z,9
2022-09-28T17:17:16.370Z,6.4
2022-09-28T17:19:07.365Z,4.5
2022-09-28T17:21:07.976Z,3.2
2022-09-28T17:23:14.411Z,2.1
2022-09-28T17:25:09.098Z,1.5
2022-09-28T17:27:07.903Z,1
2022-09-28T17:29:16.458Z,0.7
2022-09-28T17:31:07.439Z,0.4
2022-09-28T17:33:07.331Z,0.3
2022-09-28T17:35:23.450Z,0.2
2022-09-28T17:37:12.126Z,0.1
2022-09-28T17:39:08.007Z,0.1
2022-09-28T17:41:11.345Z,0
2022-09-28T17:43:13.798Z,0
2022-09-28T17:45:07.405Z,0
2022-09-28T17:47:10.162Z,0
2022-09-28T17:49:08.147Z,0
2022-09-28T17:51:07.473Z,1
2022-09-28T17:53:11.392Z,1
2022-09-28T17:55:07.459Z,1
2022-09-28T17:57:07.354Z,1
2022-09-28T17:59:07.974Z,1
2022-09-28T18:03:11.330Z,1
2022-09-28T18:05:07.870Z,1
2022-09-28T18:07:07.528Z,1
2022-09-28T18:09:07.799Z,1
2022-09-28T18:11:12.423Z,1
2022-09-28T18:13:07.804Z,1
2022-09-28T18:15:07.559Z,1
2022-09-28T18:17:11.755Z,1
2022-09-28T18:19:11.647Z,1
2022-09-28T18:21:11.357Z,1
2022-09-28T18:23:07.626Z,1
2022-09-28T18:25:08.411Z,1
2022-09-28T18:27:08.025Z,0.2
2022-09-28T18:29:11.111Z,1
2022-09-28T18:31:07.374Z,1
2022-09-28T18:37:07.798Z,1
2022-09-28T18:39:07.810Z,1
2022-09-28T18:41:07.499Z,1
2022-09-28T18:43:11.229Z,1
2022-09-28T18:45:07.406Z,1
2022-09-28T18:47:09.999Z,1
2022-09-28T18:49:07.446Z,1
2022-09-28T18:51:07.394Z,1
2022-09-28T18:53:11.359Z,1
2022-09-28T18:55:08.373Z,1
2022-09-28T18:57:08.589Z,1
2022-09-28T18:59:11.217Z,1
2022-09-28T19:01:28.216Z,1
2022-09-28T19:03:10.749Z,1
2022-09-28T19:05:07.314Z,1
2022-09-28T19:07:09.353Z,1
2022-09-28T19:09:07.394Z,1
2022-09-28T19:11:14.720Z,1
2022-09-28T19:13:07.864Z,1
2022-09-28T19:15:07.446Z,1
2022-09-28T19:17:10.111Z,1
2022-09-28T19:19:08.001Z,1
2022-09-28T19:21:04.637Z,1
2022-09-28T19:23:07.324Z,1
2022-09-28T19:27:11.349Z,1
2022-09-28T19:31:07.412Z,1
2022-09-28T19:33:08.295Z,1
2022-09-28T19:35:08.024Z,1
2022-09-28T19:37:07.947Z,1
2022-09-28T19:39:07.246Z,1
2022-09-28T19:41:08.071Z,1
2022-09-28T19:43:07.361Z,1
2022-09-28T19:45:07.499Z,1
2022-09-28T19:47:10.138Z,1
2022-09-28T19:49:07.413Z,1
2022-09-28T19:51:08.020Z,1
2022-09-28T19:53:07.913Z,1
2022-09-28T19:55:13.300Z,1
2022-09-28T19:57:07.250Z,1
2022-09-28T19:59:07.248Z,1
2022-09-28T20:01:08.370Z,1
2022-09-28T20:03:08.154Z,1
2022-09-28T20:05:11.206Z,1
2022-09-28T20:07:07.577Z,1
2022-09-28T20:09:07.855Z,1
2022-09-28T20:11:11.475Z,1
2022-09-28T20:13:07.367Z,1
2022-09-28T20:15:14.608Z,1
2022-09-28T20:17:07.657Z,1
2022-09-28T20:19:07.246Z,1
2022-09-28T20:21:07.873Z,1
2022-09-28T20:23:07.383Z,1
2022-09-28T20:25:07.961Z,1
2022-09-28T20:27:07.246Z,1
2022-09-28T20:29:10.005Z,1
2022-09-28T20:31:11.014Z,1
2022-09-28T20:33:07.255Z,1
2022-09-28T20:35:12.492Z,1
2022-09-28T20:37:11.342Z,1
2022-09-28T20:39:07.758Z,1
2022-09-28T20:41:11.191Z,1
2022-09-28T20:43:14.730Z,1
2022-09-28T20:45:07.814Z,1
2022-09-28T20:47:08.139Z,1
2022-09-28T20:49:08.190Z,1
2022-09-28T20:51:09.999Z,1
2022-09-28T20:53:07.952Z,1
2022-09-28T20:55:17.332Z,1
2022-09-28T20:57:09.593Z,1
2022-09-28T20:59:11.711Z,1
2022-09-28T21:01:07.904Z,1
2022-09-28T21:03:13.421Z,1
2022-09-28T21:05:07.749Z,1
2022-09-28T21:07:11.518Z,1
2022-09-28T21:09:07.886Z,1
2022-09-28T21:11:08.282Z,1
2022-09-28T21:13:07.987Z,1
2022-09-28T21:15:07.789Z,1
2022-09-28T21:17:07.273Z,1
2022-09-28T21:19:07.874Z,1
2022-09-28T21:21:08.065Z,1
2022-09-28T21:23:11.420Z,1
2022-09-28T21:25:07.440Z,1
2022-09-28T21:27:07.799Z,1
2022-09-28T21:29:08.039Z,1
2022-09-28T21:31:07.650Z,1
2022-09-28T21:33:07.307Z,1
2022-09-28T21:35:08.048Z,1
2022-09-28T21:37:11.239Z,1
2022-09-28T21:39:11.465Z,1
2022-09-28T21:41:07.845Z,1
2022-09-28T21:43:07.392Z,1
2022-09-28T21:45:12.240Z,1
2022-09-28T21:47:07.569Z,1
2022-09-28T21:49:08.209Z,1
2022-09-28T21:51:14.420Z,1
2022-09-28T21:53:11.548Z,1
2022-09-28T21:55:07.971Z,1
2022-09-28T21:59:07.878Z,1
2022-09-28T22:01:08.400Z,1
2022-09-28T22:03:08.087Z,1
2022-09-28T22:05:04.546Z,1
2022-09-28T22:07:10.678Z,1
2022-09-28T22:09:07.319Z,1
2022-09-28T22:11:11.255Z,1
2022-09-28T22:13:11.411Z,1
2022-09-28T22:15:07.791Z,1
2022-09-28T22:17:16.977Z,1
2022-09-28T22:19:11.488Z,1
2022-09-28T22:21:07.612Z,1
2022-09-28T22:23:07.945Z,1
2022-09-28T22:25:14.639Z,1
2022-09-28T22:27:11.427Z,1
2022-09-28T22:29:07.747Z,1
2022-09-28T22:31:11.370Z,1
2022-09-28T22:33:08.442Z,1
2022-09-28T22:35:07.399Z,1
2022-09-28T22:37:14.290Z,1
2022-09-28T22:39:11.464Z,1
2022-09-28T22:41:11.325Z,1
2022-09-28T22:43:07.448Z,1
2022-09-28T22:45:08.095Z,1
2022-09-28T22:49:08.240Z,1
2022-09-28T22:51:09.240Z,1
2022-09-28T22:53:07.844Z,1
2022-09-28T22:55:07.287Z,1
2022-09-28T22:57:11.297Z,1
2022-09-28T22:59:07.862Z,1
2022-09-28T23:01:07.821Z,1
2022-09-28T23:03:07.342Z,1
2022-09-28T23:05:11.314Z,1
2022-09-28T23:07:08.006Z,1
2022-09-28T23:09:11.458Z,1
2022-09-28T23:11:11.352Z,1
2022-09-28T23:13:07.666Z,1
2022-09-28T23:15:11.442Z,1
2022-09-28T23:17:07.293Z,1
2022-09-28T23:23:11.276Z,1
2022-09-28T23:25:11.335Z,1
2022-09-28T23:27:07.719Z,1
2022-09-28T23:29:11.569Z,1
2022-09-28T23:31:07.875Z,1
2022-09-28T23:33:07.823Z,1
2022-09-28T23:35:07.952Z,1
2022-09-28T23:37:11.614Z,1
2022-09-28T23:39:11.162Z,1
2022-09-28T23:41:12.912Z,1
2022-09-28T23:43:07.629Z,1
2022-09-28T23:45:11.308Z,1
2022-09-28T23:47:07.755Z,1
2022-09-28T23:49:11.537Z,1
2022-09-28T23:51:10.940Z,1
2022-09-28T23:53:08.116Z,1
2022-09-28T23:57:07.811Z,1
2022-09-28T23:59:07.929Z,1
